Time;durP1;ratioP1;P1;durP2;ratioP2;P2;SDS_P1;SDS_P2;PMS_P1;PMS_P2;Temp;Humidity;BMP_temperature;BMP_pressure;BME280_temperature;BME280_humidity;BME280_pressure;Samples;Min_cycle;Max_cycle;Signal;HPM_P1;HPM_P2
2021/11/26 00:00:17;;;;;;;;;6.00;5.25;;;;;9.31;62.27;100562.56;2084438;28;48284;-61
2021/11/26 00:01:18;;;;;;;;;10.33;9.33;;;;;9.30;62.34;100561.69;2108972;27;46659;-61
2021/11/26 00:02:22;;;;;;;;;6.33;6.00;;;;;9.30;62.31;100558.19;2104465;27;46338;-63
2021/11/26 00:03:23;;;;;;;;;9.75;7.00;;;;;9.29;62.24;100556.44;2083881;28;47344;-61
2021/11/26 00:04:24;;;;;;;;;8.33;8.33;;;;;9.30;62.34;100567.00;2088454;28;45069;-62
2021/11/26 00:05:24;;;;;;;;;6.00;6.00;;;;;9.29;62.18;100559.97;2084000;28;47871;-60
2021/11/26 00:06:26;;;;;;;;;6.50;6.50;;;;;9.30;62.37;100561.69;2084332;28;48153;-62
2021/11/26 00:07:26;;;;;;;;;8.00;6.80;;;;;9.30;62.17;100560.81;2091768;28;46185;-62
2021/11/26 00:08:27;;;;;;;;;6.00;6.00;;;;;9.30;62.29;100558.19;2091233;28;47304;-62
2021/11/26 00:09:27;;;;;;;;;9.50;9.50;;;;;9.29;62.33;100552.00;2092375;28;47260;-64
2021/11/26 00:10:28;;;;;;;;;5.33;5.33;;;;;9.29;62.25;100549.38;2091650;28;48153;-62
2021/11/26 00:11:28;;;;;;;;;6.33;6.33;;;;;9.29;62.02;100548.50;2089358;27;45632;-62
2021/11/26 00:12:29;;;;;;;;;8.75;8.75;;;;;9.30;62.02;100550.22;2086742;28;46161;-63
2021/11/26 00:13:34;;;;;;;;;8.75;7.50;;;;;9.30;62.11;100547.59;2102197;27;45998;-61
2021/11/26 00:14:41;;;;;;;;;9.20;8.20;;;;;9.31;62.21;100549.31;2100042;27;45399;-61
2021/11/26 00:15:42;;;;;;;;;9.40;6.60;;;;;9.29;61.94;100552.00;2086147;27;46648;-61
2021/11/26 00:16:43;;;;;;;;;10.00;9.75;;;;;9.30;62.11;100544.94;2085850;28;47675;-61
2021/11/26 00:17:52;;;;;;;;;8.80;7.40;;;;;9.30;62.00;100539.63;2084714;28;48492;-62
2021/11/26 00:18:59;;;;;;;;;8.75;5.75;;;;;9.29;62.41;100541.41;2083659;28;48213;-62
2021/11/26 00:20:00;;;;;;;;;11.60;8.00;;;;;9.30;62.09;100537.00;2082942;28;47766;-62
2021/11/26 00:21:00;;;;;;;;;6.60;5.00;;;;;9.29;61.76;100532.59;2082780;28;48188;-61
2021/11/26 00:22:01;;;;;;;;;7.67;6.00;;;;;9.30;62.23;100542.28;2090840;27;47037;-60
2021/11/26 00:23:02;;;;;;;;;6.60;6.60;;;;;9.30;62.33;100544.94;2089367;28;48382;-61
2021/11/26 00:24:05;;;;;;;;;6.75;6.75;;;;;9.29;62.23;100535.25;2084089;28;45382;-62
2021/11/26 00:25:06;;;;;;;;;6.20;6.20;;;;;9.28;62.07;100536.16;2091747;27;47376;-61
2021/11/26 00:26:07;;;;;;;;;7.25;5.75;;;;;9.29;62.41;100536.13;2099792;28;48718;-61
2021/11/26 00:27:08;;;;;;;;;5.00;5.00;;;;;9.29;61.96;100540.56;2094975;28;47143;-61
2021/11/26 00:28:09;;;;;;;;;28.20;26.20;;;;;9.29;62.03;100540.56;2092019;28;46769;-61
2021/11/26 00:29:10;;;;;;;;;25.25;24.00;;;;;9.28;62.55;100537.03;2086511;28;47040;-61
2021/11/26 00:30:11;;;;;;;;;28.75;23.25;;;;;9.29;62.24;100544.06;2083630;28;45240;-62
2021/11/26 00:31:11;;;;;;;;;25.60;24.00;;;;;9.29;62.25;100543.19;2088227;28;45334;-61
2021/11/26 00:32:12;;;;;;;;;12.50;11.25;;;;;9.29;62.13;100548.50;2099749;27;47504;-62
2021/11/26 00:33:12;;;;;;;;;12.75;12.00;;;;;9.29;62.14;100546.72;2099355;28;48681;-61
2021/11/26 00:34:13;;;;;;;;;12.00;7.00;;;;;9.29;61.90;100543.19;2091422;28;45805;-61
2021/11/26 00:35:14;;;;;;;;;10.33;8.00;;;;;9.29;62.00;100545.84;2083698;28;48063;-62
2021/11/26 00:36:15;;;;;;;;;6.75;6.75;;;;;9.29;62.04;100536.13;2100602;28;47709;-61
2021/11/26 00:37:15;;;;;;;;;6.00;6.00;;;;;9.29;62.08;100532.59;2097909;27;46850;-61
2021/11/26 00:38:16;;;;;;;;;8.25;7.25;;;;;9.28;61.72;100536.16;2089348;28;45495;-61
2021/11/26 00:39:17;;;;;;;;;5.50;5.50;;;;;9.29;62.06;100537.91;2089966;28;48195;-61
2021/11/26 00:40:17;;;;;;;;;7.00;6.33;;;;;9.28;61.89;100539.69;2086484;28;45242;-61
2021/11/26 00:41:18;;;;;;;;;6.33;5.33;;;;;9.28;61.97;100530.84;2085404;28;47911;-62
2021/11/26 00:42:19;;;;;;;;;8.33;6.67;;;;;9.27;61.75;100535.25;2084314;28;46122;-62
2021/11/26 00:43:19;;;;;;;;;5.00;5.00;;;;;9.27;61.99;100531.72;2090277;28;46163;-61
2021/11/26 00:44:20;;;;;;;;;6.00;6.00;;;;;9.27;61.99;100526.44;2091315;28;46895;-61
2021/11/26 00:45:20;;;;;;;;;9.00;9.00;;;;;9.27;61.98;100521.13;2091733;28;47419;-62
2021/11/26 00:46:21;;;;;;;;;9.00;5.25;;;;;9.27;62.25;100529.09;2086231;28;45434;-61
2021/11/26 00:47:22;;;;;;;;;9.33;7.00;;;;;9.28;62.02;100521.13;2084196;28;46222;-61
2021/11/26 00:48:23;;;;;;;;;4.75;4.50;;;;;9.28;61.87;100529.09;2091736;28;48256;-62
2021/11/26 00:49:23;;;;;;;;;6.00;6.00;;;;;9.28;61.91;100528.22;2091551;28;47984;-62
2021/11/26 00:50:25;;;;;;;;;5.67;5.67;;;;;9.29;61.84;100528.19;2099411;28;45306;-62
2021/11/26 00:51:30;;;;;;;;;8.00;4.75;;;;;9.30;61.89;100521.97;2099230;28;48413;-62
2021/11/26 00:52:30;;;;;;;;;6.75;5.75;;;;;9.31;61.92;100525.50;2091902;28;47123;-62
2021/11/26 00:53:31;;;;;;;;;7.00;5.33;;;;;9.31;61.87;100526.38;2091665;27;46145;-62
2021/11/26 00:54:32;;;;;;;;;7.75;7.25;;;;;9.32;61.82;100524.59;2090346;27;47258;-61
2021/11/26 00:55:33;;;;;;;;;6.33;5.00;;;;;9.33;61.74;100524.56;2086743;28;47544;-61
2021/11/26 00:56:34;;;;;;;;;9.33;6.00;;;;;9.32;61.82;100520.16;2086584;28;48379;-61
2021/11/26 00:57:34;;;;;;;;;4.00;4.00;;;;;9.32;61.81;100514.00;2089085;28;48152;-61
2021/11/26 00:58:35;;;;;;;;;5.00;5.00;;;;;9.32;61.63;100517.53;2091615;28;47147;-61
2021/11/26 00:59:37;;;;;;;;;11.00;8.25;;;;;9.33;61.79;100518.38;2092127;28;45625;-61
2021/11/26 01:00:38;;;;;;;;;5.00;5.00;;;;;9.33;61.65;100513.97;2087535;28;47204;-61
2021/11/26 01:01:38;;;;;;;;;4.67;3.67;;;;;9.33;61.76;100513.09;2092105;28;47043;-61
2021/11/26 01:02:40;;;;;;;;;6.75;6.00;;;;;9.34;61.68;100518.34;2088508;28;48268;-61
2021/11/26 01:03:41;;;;;;;;;4.00;4.00;;;;;9.34;61.92;100514.84;2090576;28;45663;-62
2021/11/26 01:04:42;;;;;;;;;3.00;3.00;;;;;9.34;61.45;100518.34;2091163;28;47459;-61
2021/11/26 01:05:43;;;;;;;;;9.40;6.40;;;;;9.34;62.08;100512.19;2089123;28;47072;-60
2021/11/26 01:06:43;;;;;;;;;6.67;6.33;;;;;9.34;61.63;100512.19;2081681;28;47090;-61
2021/11/26 01:07:44;;;;;;;;;6.25;6.00;;;;;9.34;61.60;100513.06;2089258;28;47808;-61
2021/11/26 01:08:44;;;;;;;;;4.50;4.50;;;;;9.35;61.51;100511.28;2090958;28;47583;-61
2021/11/26 01:09:45;;;;;;;;;7.25;7.25;;;;;9.36;61.58;100513.03;2099541;28;45355;-61
2021/11/26 01:10:48;;;;;;;;;7.50;6.75;;;;;9.35;61.42;100512.16;2097798;28;48054;-61
2021/11/26 01:11:48;;;;;;;;;8.80;6.80;;;;;9.35;61.70;100512.16;2091716;27;46805;-61
2021/11/26 01:12:50;;;;;;;;;10.00;7.75;;;;;9.35;61.67;100511.28;2091083;28;46357;-61
2021/11/26 01:13:51;;;;;;;;;9.60;7.00;;;;;9.35;61.47;100503.34;2088427;28;45385;-61
2021/11/26 01:14:52;;;;;;;;;9.00;7.75;;;;;9.36;61.43;100513.03;2090480;28;47921;-61
2021/11/26 01:15:52;;;;;;;;;5.40;5.40;;;;;9.36;61.58;100515.69;2088753;28;47245;-61
2021/11/26 01:16:53;;;;;;;;;9.00;8.25;;;;;9.36;61.46;100513.03;2085320;28;47236;-61
2021/11/26 01:17:54;;;;;;;;;8.00;7.25;;;;;9.36;61.48;100505.94;2091483;28;47497;-61
2021/11/26 01:18:54;;;;;;;;;7.25;7.25;;;;;9.37;61.51;100513.00;2098550;28;47145;-61
2021/11/26 01:19:55;;;;;;;;;12.00;8.25;;;;;9.37;61.59;100509.47;2088882;28;47279;-61
2021/11/26 01:20:55;;;;;;;;;8.50;8.25;;;;;9.37;61.37;100507.69;2090007;28;46883;-61
2021/11/26 01:21:56;;;;;;;;;6.00;5.33;;;;;9.37;61.24;100505.03;2091428;28;47245;-60
2021/11/26 01:22:58;;;;;;;;;8.00;6.50;;;;;9.37;61.27;100502.41;2090363;28;47270;-61
2021/11/26 01:23:59;;;;;;;;;6.80;6.80;;;;;9.37;61.21;100504.16;2090957;28;45526;-62
2021/11/26 01:24:59;;;;;;;;;6.33;5.00;;;;;9.36;61.32;100503.31;2091323;28;47127;-61
2021/11/26 01:26:00;;;;;;;;;5.00;5.00;;;;;9.36;61.23;100494.47;2092107;28;47602;-62
2021/11/26 01:27:04;;;;;;;;;7.00;7.00;;;;;9.35;61.13;100492.75;2091484;28;45232;-62
2021/11/26 01:28:06;;;;;;;;;10.40;8.00;;;;;9.33;60.99;100499.84;2090707;28;48147;-62
2021/11/26 01:29:07;;;;;;;;;9.20;8.20;;;;;9.33;61.20;100498.06;2091021;28;48183;-61
2021/11/26 01:30:15;;;;;;;;;6.25;6.25;;;;;9.34;61.27;100504.25;2090067;28;48152;-61
2021/11/26 01:31:16;;;;;;;;;6.40;6.20;;;;;9.32;61.07;100496.34;2084910;28;47407;-61
2021/11/26 01:32:16;;;;;;;;;6.00;6.00;;;;;9.32;61.08;100490.16;2091354;28;47722;-61
2021/11/26 01:33:19;;;;;;;;;5.00;5.00;;;;;9.32;61.19;100500.75;2090942;28;48337;-62
2021/11/26 01:34:19;;;;;;;;;5.20;5.20;;;;;9.31;61.09;100497.25;2091528;28;47293;-61
2021/11/26 01:35:21;;;;;;;;;6.00;6.00;;;;;9.31;61.12;100491.06;2090894;28;48499;-60
2021/11/26 01:36:23;;;;;;;;;8.00;6.00;;;;;9.31;60.98;100493.72;2090356;28;45310;-61
2021/11/26 01:37:23;;;;;;;;;6.60;6.20;;;;;9.30;60.99;100494.63;2089966;28;48236;-60
2021/11/26 01:38:24;;;;;;;;;8.50;7.00;;;;;9.29;61.01;100491.09;2091227;27;46921;-62
2021/11/26 01:39:25;;;;;;;;;7.00;7.00;;;;;9.30;61.01;100491.97;2087234;28;47224;-61
2021/11/26 01:40:26;;;;;;;;;5.25;5.25;;;;;9.30;60.92;100491.97;2091384;28;48258;-60
2021/11/26 01:41:27;;;;;;;;;7.60;6.80;;;;;9.29;60.97;100479.66;2090856;28;47251;-61
2021/11/26 01:42:27;;;;;;;;;9.50;8.25;;;;;9.28;61.17;100491.13;2091403;27;46323;-61
2021/11/26 01:43:28;;;;;;;;;7.00;7.00;;;;;9.28;60.90;100480.56;2091276;28;47843;-61
2021/11/26 01:44:28;;;;;;;;;2.00;1.00;;;;;9.27;60.82;100484.06;2091232;28;47299;-60
2021/11/26 01:45:29;;;;;;;;;5.50;5.50;;;;;9.25;61.10;100475.28;2089395;28;47327;-62
2021/11/26 01:46:29;;;;;;;;;8.75;6.75;;;;;9.24;60.84;100477.06;2090629;28;46329;-61
2021/11/26 01:47:30;;;;;;;;;6.25;6.25;;;;;9.24;61.00;100476.19;2090344;28;48427;-61
2021/11/26 01:48:30;;;;;;;;;8.50;6.25;;;;;9.22;61.02;100478.00;2090434;28;46779;-61
2021/11/26 01:49:31;;;;;;;;;6.00;6.00;;;;;9.22;61.11;100472.72;2097459;28;47203;-61
2021/11/26 01:50:31;;;;;;;;;11.00;7.75;;;;;9.21;61.06;100474.50;2105641;27;48079;-61
2021/11/26 01:51:32;;;;;;;;;5.00;5.00;;;;;9.21;61.23;100473.63;2092431;28;46505;-62
2021/11/26 01:52:33;;;;;;;;;6.00;6.00;;;;;9.21;61.17;100476.25;2092564;27;47376;-61
2021/11/26 01:53:35;;;;;;;;;7.50;6.25;;;;;9.20;61.28;100472.75;2093449;28;45448;-61
2021/11/26 01:54:36;;;;;;;;;8.25;7.00;;;;;9.20;61.08;100466.56;2089881;27;48375;-61
2021/11/26 01:55:37;;;;;;;;;6.00;6.00;;;;;9.18;60.97;100469.25;2093427;27;47083;-62
2021/11/26 01:56:37;;;;;;;;;11.80;8.00;;;;;9.17;61.06;100467.53;2101160;27;47657;-61
2021/11/26 01:57:38;;;;;;;;;8.00;8.00;;;;;9.18;61.13;100461.31;2100687;27;47059;-62
2021/11/26 01:58:39;;;;;;;;;5.75;5.75;;;;;9.17;61.27;100456.06;2093880;28;47352;-61
2021/11/26 01:59:39;;;;;;;;;6.00;6.00;;;;;9.18;61.41;100465.75;2094286;28;47241;-61
2021/11/26 02:00:43;;;;;;;;;10.50;10.00;;;;;9.17;61.09;100456.94;2092313;27;47858;-62
2021/11/26 02:01:44;;;;;;;;;11.20;9.80;;;;;9.16;60.94;100454.31;2092183;28;47537;-61
2021/11/26 02:02:45;;;;;;;;;8.25;7.50;;;;;9.16;61.27;100455.19;2090489;28;45937;-61
2021/11/26 02:03:45;;;;;;;;;14.50;9.75;;;;;9.17;61.23;100458.72;2102454;27;45404;-61
2021/11/26 02:04:46;;;;;;;;;6.50;6.50;;;;;9.15;60.99;100450.81;2102265;27;48041;-61
2021/11/26 02:05:47;;;;;;;;;8.25;7.00;;;;;9.13;61.18;100448.16;2092490;28;48514;-61
2021/11/26 02:06:48;;;;;;;;;11.25;8.00;;;;;9.13;61.27;100448.16;2094123;27;48227;-61
2021/11/26 02:07:49;;;;;;;;;6.00;5.80;;;;;9.14;61.25;100446.38;2091610;27;47431;-61
2021/11/26 02:08:50;;;;;;;;;13.20;7.60;;;;;9.14;61.29;100447.25;2092380;28;47960;-61
2021/11/26 02:09:51;;;;;;;;;10.80;10.00;;;;;9.13;61.13;100445.50;2091702;28;47890;-61
2021/11/26 02:10:52;;;;;;;;;9.25;6.75;;;;;9.13;61.15;100445.50;2091039;27;48127;-61
2021/11/26 02:11:52;;;;;;;;;8.25;8.25;;;;;9.12;61.05;100446.41;2088679;28;48180;-62
2021/11/26 02:12:53;;;;;;;;;10.50;9.75;;;;;9.10;61.09;100442.94;2092622;28;47251;-61
2021/11/26 02:13:53;;;;;;;;;10.25;7.50;;;;;9.08;60.96;100441.22;2100276;27;47939;-61
2021/11/26 02:14:54;;;;;;;;;7.00;6.50;;;;;9.08;61.11;100441.22;2100002;27;46900;-61
2021/11/26 02:15:59;;;;;;;;;9.67;8.00;;;;;9.07;61.12;100426.25;2091420;28;48509;-61
2021/11/26 02:16:59;;;;;;;;;7.80;7.60;;;;;9.07;61.09;100431.53;2092454;28;48556;-61
2021/11/26 02:18:03;;;;;;;;;7.25;7.00;;;;;9.06;61.25;100430.66;2095982;28;47306;-62
2021/11/26 02:19:05;;;;;;;;;7.80;7.80;;;;;9.06;61.05;100425.38;2095213;28;46442;-62
2021/11/26 02:20:17;;;;;;;;;9.20;6.60;;;;;9.06;61.10;100427.16;2094932;28;47374;-61
2021/11/26 02:21:20;;;;;;;;;8.00;6.00;;;;;9.06;61.24;100433.31;2089216;28;47514;-61
2021/11/26 02:22:21;;;;;;;;;7.80;6.80;;;;;9.06;61.14;100424.50;2084449;28;46170;-62
2021/11/26 02:23:21;;;;;;;;;7.75;7.25;;;;;9.06;61.32;100414.78;2091977;28;47756;-61
2021/11/26 02:24:22;;;;;;;;;8.50;7.25;;;;;9.06;61.25;100420.06;2092277;28;45478;-61
2021/11/26 02:25:24;;;;;;;;;8.25;8.25;;;;;9.06;61.02;100414.78;2092717;28;48068;-61
2021/11/26 02:26:24;;;;;;;;;6.50;6.00;;;;;9.06;61.04;100419.22;2087909;28;48526;-62
2021/11/26 02:27:25;;;;;;;;;6.33;5.67;;;;;9.07;61.21;100407.72;2084591;28;47086;-61
2021/11/26 02:28:26;;;;;;;;;6.00;6.00;;;;;9.05;61.01;100409.53;2087239;28;46346;-62
2021/11/26 02:29:26;;;;;;;;;8.33;6.67;;;;;9.04;61.27;100408.66;2086784;28;46774;-61
2021/11/26 02:30:28;;;;;;;;;9.00;8.33;;;;;9.04;61.21;100408.66;2083662;28;47482;-61
2021/11/26 02:31:28;;;;;;;;;7.40;7.40;;;;;9.03;61.09;100409.56;2089928;28;48132;-61
2021/11/26 02:32:29;;;;;;;;;7.00;7.00;;;;;9.04;61.44;100403.38;2092437;28;47411;-61
2021/11/26 02:33:30;;;;;;;;;8.50;8.50;;;;;9.04;61.27;100405.13;2088330;28;45685;-61
2021/11/26 02:34:30;;;;;;;;;6.00;6.00;;;;;9.03;61.42;100398.97;2088399;28;47393;-61
2021/11/26 02:35:32;;;;;;;;;5.75;5.75;;;;;9.03;61.25;100398.97;2091560;28;47084;-61
2021/11/26 02:36:33;;;;;;;;;8.20;6.80;;;;;9.03;61.32;100401.63;2090234;28;46314;-62
2021/11/26 02:37:33;;;;;;;;;9.50;7.75;;;;;9.04;61.28;100399.84;2089208;27;47146;-61
2021/11/26 02:38:34;;;;;;;;;9.67;7.00;;;;;9.03;61.30;100406.91;2091294;28;48456;-60
2021/11/26 02:39:35;;;;;;;;;8.00;8.00;;;;;9.02;61.42;100399.88;2092636;28;47947;-60
2021/11/26 02:40:38;;;;;;;;;7.75;7.75;;;;;9.02;61.29;100398.97;2091714;28;47224;-60
2021/11/26 02:41:41;;;;;;;;;9.00;9.00;;;;;9.01;61.21;100399.88;2092276;28;47549;-60
2021/11/26 02:42:42;;;;;;;;;6.60;6.20;;;;;9.00;61.13;100400.78;2092048;28;47549;-61
2021/11/26 02:43:42;;;;;;;;;7.75;6.50;;;;;8.99;61.19;100410.50;2091729;28;48165;-60
2021/11/26 02:44:43;;;;;;;;;6.50;6.50;;;;;8.99;61.41;100402.56;2091645;28;45456;-60
2021/11/26 02:45:45;;;;;;;;;6.75;5.75;;;;;8.99;61.20;100402.56;2091313;28;47135;-60
2021/11/26 02:46:46;;;;;;;;;6.40;6.40;;;;;8.99;61.18;100397.28;2091972;28;47226;-60
2021/11/26 02:47:47;;;;;;;;;6.75;6.75;;;;;8.98;61.23;100390.25;2092598;28;48394;-60
2021/11/26 02:48:48;;;;;;;;;8.60;7.00;;;;;8.98;61.28;100394.66;2092084;28;46217;-60
2021/11/26 02:49:49;;;;;;;;;9.33;9.00;;;;;8.99;61.19;100399.91;2092478;28;45603;-60
2021/11/26 02:50:49;;;;;;;;;7.20;7.20;;;;;8.98;61.53;100397.31;2092165;28;47479;-60
2021/11/26 02:51:50;;;;;;;;;7.25;7.25;;;;;8.98;61.13;100392.00;2092335;28;46377;-61
2021/11/26 02:52:51;;;;;;;;;8.25;7.00;;;;;8.98;61.39;100395.53;2092620;28;48222;-61
2021/11/26 02:53:52;;;;;;;;;11.00;8.60;;;;;8.98;61.58;100386.72;2089579;28;47420;-60
2021/11/26 02:54:53;;;;;;;;;6.75;6.75;;;;;8.99;61.35;100388.47;2084880;28;47744;-60
2021/11/26 02:55:54;;;;;;;;;10.20;8.20;;;;;8.97;61.43;100383.19;2084945;28;47123;-60
2021/11/26 02:56:54;;;;;;;;;12.00;11.00;;;;;8.97;61.49;100375.25;2087731;28;46993;-61
2021/11/26 02:57:56;;;;;;;;;7.67;6.33;;;;;8.97;61.44;100385.84;2091809;28;47163;-61
2021/11/26 02:58:56;;;;;;;;;8.20;8.20;;;;;8.97;61.38;100387.63;2092415;28;46310;-61
2021/11/26 02:59:57;;;;;;;;;6.25;5.00;;;;;8.95;61.53;100363.84;2089306;27;46782;-61
2021/11/26 03:00:59;;;;;;;;;10.25;9.75;;;;;8.95;61.49;100369.13;2087802;28;47017;-61
2021/11/26 03:02:01;;;;;;;;;6.00;6.00;;;;;8.93;61.47;100368.31;2091164;28;45250;-61
2021/11/26 03:03:02;;;;;;;;;10.80;9.00;;;;;8.92;61.42;100361.25;2085573;28;46193;-61
2021/11/26 03:04:03;;;;;;;;;9.40;9.40;;;;;8.91;61.49;100366.59;2092056;28;45437;-61
2021/11/26 03:05:04;;;;;;;;;12.50;11.75;;;;;8.90;61.43;100367.50;2092138;28;47145;-61
2021/11/26 03:06:06;;;;;;;;;9.40;6.80;;;;;8.88;61.27;100367.50;2102089;27;45679;-61
2021/11/26 03:07:10;;;;;;;;;10.60;10.60;;;;;8.87;61.68;100357.81;2098494;27;48367;-62
2021/11/26 03:08:11;;;;;;;;;7.20;7.20;;;;;8.86;61.60;100366.66;2100666;27;46228;-61
2021/11/26 03:09:11;;;;;;;;;8.20;8.20;;;;;8.86;61.53;100364.03;2100011;28;48323;-62
2021/11/26 03:10:16;;;;;;;;;8.25;8.25;;;;;8.84;61.50;100357.88;2099924;27;47806;-62
2021/11/26 03:11:17;;;;;;;;;10.60;8.40;;;;;8.84;61.74;100358.75;2100560;27;45776;-61
2021/11/26 03:12:18;;;;;;;;;11.25;10.75;;;;;8.83;61.57;100357.03;2084445;28;47220;-61
2021/11/26 03:13:18;;;;;;;;;10.75;10.50;;;;;8.81;61.68;100358.84;2090832;28;47565;-61
2021/11/26 03:14:19;;;;;;;;;6.75;6.75;;;;;8.80;61.45;100354.44;2108412;27;47157;-61
2021/11/26 03:15:21;;;;;;;;;7.50;6.00;;;;;8.79;61.83;100358.00;2108582;27;47095;-61
2021/11/26 03:16:21;;;;;;;;;10.20;9.60;;;;;8.79;61.79;100354.47;2091780;28;47330;-60
2021/11/26 03:17:24;;;;;;;;;8.75;8.75;;;;;8.77;61.91;100354.53;2092088;28;45347;-61
2021/11/26 03:18:27;;;;;;;;;9.60;7.20;;;;;8.76;61.86;100354.53;2092201;28;48555;-61
2021/11/26 03:19:29;;;;;;;;;7.20;7.20;;;;;8.74;61.86;100359.84;2094100;28;45374;-61
2021/11/26 03:20:31;;;;;;;;;10.00;10.00;;;;;8.74;61.76;100354.56;2091269;28;47475;-61
2021/11/26 03:21:31;;;;;;;;;8.60;8.60;;;;;8.74;62.03;100358.97;2091535;28;48554;-61
2021/11/26 03:22:32;;;;;;;;;7.75;7.75;;;;;8.72;61.93;100352.84;2092096;28;48050;-64
2021/11/26 03:23:33;;;;;;;;;11.50;10.75;;;;;8.71;61.91;100351.97;2092149;28;47381;-61
2021/11/26 03:24:33;;;;;;;;;10.00;9.25;;;;;8.71;61.91;100351.09;2099975;28;45848;-61
2021/11/26 03:25:34;;;;;;;;;11.25;10.50;;;;;8.70;61.92;100347.59;2099783;28;47283;-61
2021/11/26 03:26:34;;;;;;;;;11.00;10.00;;;;;8.70;62.10;100347.59;2091907;28;47765;-60
2021/11/26 03:27:35;;;;;;;;;11.33;9.67;;;;;8.70;62.08;100344.94;2091353;28;47515;-61
2021/11/26 03:28:35;;;;;;;;;12.25;8.75;;;;;8.68;62.10;100346.75;2092119;27;46263;-61
2021/11/26 03:29:36;;;;;;;;;6.67;5.67;;;;;8.69;62.19;100339.69;2087270;27;47150;-60
2021/11/26 03:30:38;;;;;;;;;9.75;9.75;;;;;8.68;62.24;100338.81;2085981;28;47317;-61
2021/11/26 03:31:39;;;;;;;;;9.60;9.60;;;;;8.68;61.97;100340.59;2084071;28;45255;-60
2021/11/26 03:32:39;;;;;;;;;10.25;10.25;;;;;8.68;62.04;100337.94;2084492;28;47183;-60
2021/11/26 03:33:40;;;;;;;;;5.75;5.75;;;;;8.68;62.26;100330.88;2083262;28;48363;-61
2021/11/26 03:34:40;;;;;;;;;9.00;9.00;;;;;8.67;62.07;100331.78;2099725;28;47171;-61
2021/11/26 03:35:41;;;;;;;;;9.25;9.25;;;;;8.66;61.99;100326.53;2099619;27;47729;-61
2021/11/26 03:36:41;;;;;;;;;10.50;7.25;;;;;8.66;62.41;100329.19;2090204;28;47114;-60
2021/11/26 03:37:43;;;;;;;;;11.00;10.00;;;;;8.65;62.00;100324.78;2090816;28;47073;-60
2021/11/26 03:38:43;;;;;;;;;9.60;7.80;;;;;8.64;62.17;100325.66;2091856;28;47486;-61
2021/11/26 03:39:44;;;;;;;;;12.50;9.25;;;;;8.65;62.37;100314.22;2091035;28;47106;-61
2021/11/26 03:40:44;;;;;;;;;8.25;8.25;;;;;8.64;62.27;100315.09;2098345;28;46177;-62
2021/11/26 03:41:45;;;;;;;;;10.50;10.00;;;;;8.65;62.36;100314.22;2091836;28;47245;-61
2021/11/26 03:42:46;;;;;;;;;9.33;8.67;;;;;8.64;62.18;100308.06;2092082;28;48166;-60
2021/11/26 03:43:47;;;;;;;;;10.20;10.00;;;;;8.64;62.34;100312.44;2091956;27;48142;-61
2021/11/26 03:44:47;;;;;;;;;9.50;9.50;;;;;8.63;62.31;100302.75;2092091;28;47599;-60
2021/11/26 03:45:48;;;;;;;;;10.00;8.00;;;;;8.63;62.17;100308.06;2097946;27;47091;-61
2021/11/26 03:46:49;;;;;;;;;10.75;10.25;;;;;8.63;62.16;100301.00;2092940;28;47443;-61
2021/11/26 03:47:50;;;;;;;;;9.25;7.75;;;;;8.62;62.37;100299.25;2091231;28;47946;-61
2021/11/26 03:48:51;;;;;;;;;11.00;7.40;;;;;8.61;62.32;100305.44;2091447;28;45314;-60
2021/11/26 03:49:53;;;;;;;;;8.75;8.50;;;;;8.61;62.17;100296.63;2091888;27;48658;-60
2021/11/26 03:50:53;;;;;;;;;11.40;9.60;;;;;8.60;62.42;100295.75;2092102;28;48375;-61
2021/11/26 03:51:54;;;;;;;;;11.00;11.00;;;;;8.60;62.48;100292.25;2086917;28;48335;-61
2021/11/26 03:52:55;;;;;;;;;11.00;9.67;;;;;8.59;62.41;100294.03;2083180;28;48474;-61
2021/11/26 03:53:55;;;;;;;;;9.00;8.00;;;;;8.58;62.40;100300.22;2082880;28;48364;-63
2021/11/26 03:54:56;;;;;;;;;10.33;9.00;;;;;8.58;62.38;100291.41;2095913;28;47456;-62
2021/11/26 03:55:56;;;;;;;;;11.50;10.50;;;;;8.57;62.23;100287.91;2099646;27;47468;-61
2021/11/26 03:56:57;;;;;;;;;6.00;5.25;;;;;8.57;62.36;100293.19;2083411;28;47161;-61
2021/11/26 03:57:59;;;;;;;;;8.50;8.50;;;;;8.58;62.31;100294.06;2083694;28;47189;-60
2021/11/26 03:58:59;;;;;;;;;9.20;8.20;;;;;8.57;62.48;100295.84;2091370;28;47602;-61
2021/11/26 04:00:00;;;;;;;;;11.50;10.50;;;;;8.55;62.40;100295.88;2091190;28;47324;-60
2021/11/26 04:01:00;;;;;;;;;10.25;9.75;;;;;8.57;62.33;100287.91;2102029;27;47127;-62
2021/11/26 04:02:01;;;;;;;;;9.00;9.00;;;;;8.56;62.39;100283.53;2099495;28;47396;-61
2021/11/26 04:03:01;;;;;;;;;11.25;9.00;;;;;8.55;62.36;100281.78;2091305;28;47174;-61
2021/11/26 04:04:02;;;;;;;;;12.00;10.00;;;;;8.57;62.48;100279.09;2091216;28;45326;-62
2021/11/26 04:05:04;;;;;;;;;11.25;7.75;;;;;8.55;62.16;100276.50;2099560;28;46690;-61
2021/11/26 04:06:05;;;;;;;;;8.60;8.60;;;;;8.55;62.33;100279.13;2102018;27;48460;-62
2021/11/26 04:07:06;;;;;;;;;10.00;8.80;;;;;8.54;62.51;100272.09;2098845;27;46331;-61
2021/11/26 04:08:06;;;;;;;;;11.60;6.40;;;;;8.54;62.29;100275.63;2104900;27;47727;-62
2021/11/26 04:09:07;;;;;;;;;10.25;9.25;;;;;8.55;62.45;100271.19;2087045;28;47335;-61
2021/11/26 04:10:09;;;;;;;;;6.00;6.00;;;;;8.55;62.46;100277.34;2090824;28;47148;-61
2021/11/26 04:11:10;;;;;;;;;7.20;7.20;;;;;8.55;62.39;100265.91;2092048;28;45480;-61
2021/11/26 04:12:10;;;;;;;;;9.50;9.00;;;;;8.55;62.53;100274.72;2088247;28;45402;-61
2021/11/26 04:13:13;;;;;;;;;11.00;11.00;;;;;8.58;62.51;100267.63;2082597;28;48036;-61
2021/11/26 04:14:13;;;;;;;;;9.00;9.00;;;;;8.56;62.57;100262.34;2082962;28;46793;-61
2021/11/26 04:15:15;;;;;;;;;9.00;6.75;;;;;8.57;62.56;100266.75;2082665;28;47145;-62
2021/11/26 04:16:17;;;;;;;;;9.80;7.40;;;;;8.57;62.48;100263.22;2099681;28;46081;-64
2021/11/26 04:17:17;;;;;;;;;11.00;9.40;;;;;8.57;62.39;100260.59;2098897;27;47364;-61
2021/11/26 04:18:18;;;;;;;;;9.50;8.00;;;;;8.58;62.61;100262.31;2083284;28;47276;-61
2021/11/26 04:19:18;;;;;;;;;10.50;9.00;;;;;8.58;62.55;100263.19;2083327;28;45404;-62
2021/11/26 04:20:19;;;;;;;;;9.75;9.25;;;;;8.58;62.38;100263.19;2101847;27;47341;-61
2021/11/26 04:21:20;;;;;;;;;10.20;6.20;;;;;8.58;62.38;100257.91;2090793;28;46653;-61
2021/11/26 04:22:20;;;;;;;;;8.75;8.50;;;;;8.58;62.36;100255.25;2082841;28;47402;-61
2021/11/26 04:23:21;;;;;;;;;6.25;6.25;;;;;8.59;62.58;100261.41;2091964;28;46911;-64
2021/11/26 04:24:21;;;;;;;;;9.00;9.00;;;;;8.59;62.38;100258.78;2092013;28;47501;-61
2021/11/26 04:25:22;;;;;;;;;10.50;7.75;;;;;8.60;62.59;100250.81;2091393;28;47144;-62
2021/11/26 04:26:22;;;;;;;;;10.00;9.00;;;;;8.60;62.62;100252.56;2091975;27;47396;-61
2021/11/26 04:27:23;;;;;;;;;7.50;7.50;;;;;8.61;62.21;100252.53;2086553;28;47255;-61
2021/11/26 04:28:24;;;;;;;;;5.00;5.00;;;;;8.61;62.43;100252.53;2086821;28;47363;-61
2021/11/26 04:29:25;;;;;;;;;7.00;6.60;;;;;8.62;62.47;100249.00;2091032;28;47349;-61
2021/11/26 04:30:27;;;;;;;;;7.00;7.00;;;;;8.63;62.44;100248.09;2091809;28;45876;-61
2021/11/26 04:31:27;;;;;;;;;8.20;7.20;;;;;8.62;62.46;100241.06;2091246;27;48019;-61
2021/11/26 04:32:28;;;;;;;;;11.25;9.75;;;;;8.63;62.58;100241.94;2091860;28;47414;-63
2021/11/26 04:33:30;;;;;;;;;8.00;8.00;;;;;8.65;62.44;100242.78;2092161;28;48154;-60
2021/11/26 04:34:32;;;;;;;;;7.40;7.40;;;;;8.64;62.56;100239.28;2091690;28;47633;-60
2021/11/26 04:35:32;;;;;;;;;7.25;6.00;;;;;8.65;62.58;100242.78;2089479;28;47188;-62
2021/11/26 04:36:33;;;;;;;;;9.00;7.25;;;;;8.66;62.40;100241.88;2095808;28;45265;-60
2021/11/26 04:37:33;;;;;;;;;6.50;6.50;;;;;8.66;62.33;100233.94;2085085;28;46145;-62
2021/11/26 04:38:34;;;;;;;;;10.50;9.00;;;;;8.66;62.27;100231.31;2083369;28;48654;-61
2021/11/26 04:39:35;;;;;;;;;10.00;10.00;;;;;8.68;62.32;100237.44;2087674;28;47333;-59
2021/11/26 04:40:35;;;;;;;;;6.00;6.00;;;;;8.67;62.35;100233.91;2087902;28;46326;-62
2021/11/26 04:41:36;;;;;;;;;7.00;7.00;;;;;8.67;62.43;100227.75;2089221;28;45305;-62
2021/11/26 04:42:38;;;;;;;;;9.00;9.00;;;;;8.68;62.37;100224.19;2087947;28;48479;-61
2021/11/26 04:43:38;;;;;;;;;11.75;11.00;;;;;8.68;62.46;100225.06;2086655;28;48135;-61
2021/11/26 04:44:39;;;;;;;;;8.67;7.33;;;;;8.68;62.40;100217.13;2088996;28;47791;-61
2021/11/26 04:45:39;;;;;;;;;7.00;7.00;;;;;8.69;62.60;100225.94;2091470;28;48230;-60